createdAt,value
2018-07-15T00:01:07.506Z,17.50
2018-07-15T00:03:35.995Z,17.50
2018-07-15T00:06:04.479Z,17.50
2018-07-15T00:08:32.945Z,17.50
2018-07-15T00:11:01.477Z,17.40
2018-07-15T00:13:29.910Z,17.40
2018-07-15T00:15:58.383Z,17.40
2018-07-15T00:18:26.913Z,17.40
2018-07-15T00:20:55.360Z,17.30
2018-07-15T00:23:23.845Z,17.30
2018-07-15T00:25:52.259Z,17.30
2018-07-15T00:30:55.539Z,17.20
2018-07-15T00:33:24.030Z,17.20
2018-07-15T00:35:52.430Z,17.20
2018-07-15T00:38:20.861Z,17.20
2018-07-15T00:40:49.404Z,17.10
2018-07-15T00:43:17.848Z,17.00
2018-07-15T00:45:46.322Z,17.00
2018-07-15T00:48:14.835Z,17.00
2018-07-15T00:50:43.641Z,17.00
2018-07-15T00:53:12.096Z,17.00
2018-07-15T00:55:40.536Z,17.00
2018-07-15T00:58:08.996Z,16.90
2018-07-15T01:00:42.895Z,16.80
2018-07-15T01:03:11.298Z,16.70
2018-07-15T01:05:40.118Z,16.70
2018-07-15T01:08:08.780Z,16.70
2018-07-15T01:10:37.196Z,16.80
2018-07-15T01:13:05.774Z,16.80
2018-07-15T01:15:34.228Z,16.80
2018-07-15T01:18:02.673Z,16.70
2018-07-15T01:20:31.863Z,16.80
2018-07-15T01:23:00.293Z,16.80
2018-07-15T01:25:28.800Z,16.70
2018-07-15T01:27:57.280Z,16.70
2018-07-15T01:30:25.745Z,16.70
2018-07-15T01:32:54.266Z,16.60
2018-07-15T01:35:22.704Z,16.50
2018-07-15T01:37:51.173Z,16.50
2018-07-15T01:40:19.640Z,16.40
2018-07-15T01:42:48.185Z,16.40
2018-07-15T01:45:16.681Z,16.40
2018-07-15T01:47:45.110Z,16.40
2018-07-15T01:50:13.549Z,16.40
2018-07-15T01:52:42.034Z,16.40
2018-07-15T01:55:10.656Z,16.40
2018-07-15T01:57:39.093Z,16.40
2018-07-15T02:00:08.040Z,16.40
2018-07-15T02:02:36.460Z,16.40
2018-07-15T02:05:05.612Z,16.30
2018-07-15T02:07:34.068Z,16.30
2018-07-15T02:10:02.574Z,16.30
2018-07-15T02:12:31.072Z,16.10
2018-07-15T02:14:59.497Z,16.10
2018-07-15T02:17:27.963Z,16.10
2018-07-15T02:19:57.021Z,16.00
2018-07-15T02:22:25.572Z,16.10
2018-07-15T02:24:54.055Z,16.10
2018-07-15T02:27:22.537Z,16.10
2018-07-15T02:29:50.966Z,16.00
2018-07-15T02:32:19.517Z,15.90
2018-07-15T02:34:47.910Z,15.90
2018-07-15T02:37:16.352Z,15.90
2018-07-15T02:39:44.825Z,15.90
2018-07-15T02:42:13.294Z,15.90
2018-07-15T02:44:41.950Z,15.80
2018-07-15T02:47:10.385Z,15.80
2018-07-15T02:49:38.822Z,15.80
2018-07-15T02:52:07.349Z,15.80
2018-07-15T02:54:35.849Z,15.80
2018-07-15T02:57:04.408Z,15.70
2018-07-15T02:59:32.831Z,15.60
2018-07-15T03:02:01.525Z,15.60
2018-07-15T03:04:29.916Z,15.60
2018-07-15T03:06:58.375Z,15.60
2018-07-15T03:09:27.027Z,15.70
2018-07-15T03:11:55.487Z,15.70
2018-07-15T03:14:23.958Z,15.60
2018-07-15T03:16:52.497Z,15.60
2018-07-15T03:19:20.917Z,15.60
2018-07-15T03:21:49.427Z,15.60
2018-07-15T03:24:17.838Z,15.50
2018-07-15T03:26:46.285Z,15.60
2018-07-15T03:29:15.173Z,15.50
2018-07-15T03:31:43.625Z,15.50
2018-07-15T03:34:12.072Z,15.50
2018-07-15T03:36:40.458Z,15.60
2018-07-15T03:39:09.766Z,15.60
2018-07-15T03:41:38.179Z,15.60
2018-07-15T03:44:06.910Z,15.60
2018-07-15T03:46:35.336Z,15.50
2018-07-15T03:49:03.774Z,15.50
2018-07-15T03:51:32.529Z,15.40
2018-07-15T03:54:00.962Z,15.40
2018-07-15T03:56:29.379Z,15.40
2018-07-15T03:58:57.796Z,15.40
2018-07-15T04:01:26.249Z,15.30
2018-07-15T04:03:54.688Z,15.40
2018-07-15T04:06:23.261Z,15.40
2018-07-15T04:08:51.777Z,15.50
2018-07-15T04:11:20.192Z,15.50
2018-07-15T04:13:48.632Z,15.50
2018-07-15T04:16:17.077Z,15.50
2018-07-15T04:18:45.510Z,15.50
2018-07-15T04:21:13.937Z,15.60
2018-07-15T04:23:42.342Z,15.60
2018-07-15T04:26:11.058Z,15.60
2018-07-15T04:28:40.077Z,15.70
2018-07-15T04:31:08.565Z,15.60
2018-07-15T04:33:36.989Z,15.50
2018-07-15T04:36:05.471Z,15.40
2018-07-15T04:38:34.472Z,15.50
2018-07-15T04:41:02.963Z,15.50
2018-07-15T04:43:31.394Z,15.50
2018-07-15T04:46:00.484Z,15.50
2018-07-15T04:48:29.048Z,15.40
2018-07-15T04:50:57.497Z,15.30
2018-07-15T04:53:26.016Z,15.30
2018-07-15T04:55:54.475Z,15.40
2018-07-15T04:58:23.321Z,15.50
2018-07-15T05:00:51.772Z,15.60
2018-07-15T05:03:20.196Z,15.60
2018-07-15T05:05:48.597Z,15.80
2018-07-15T05:08:17.018Z,15.80
2018-07-15T05:10:45.436Z,15.90
2018-07-15T05:13:13.876Z,15.90
2018-07-15T05:15:42.321Z,16.00
2018-07-15T05:18:10.735Z,16.00
2018-07-15T05:20:39.224Z,16.00
2018-07-15T05:23:07.703Z,16.20
2018-07-15T05:25:36.210Z,16.30
2018-07-15T05:28:04.744Z,16.30
2018-07-15T05:30:33.192Z,16.40
2018-07-15T05:33:01.580Z,16.50
2018-07-15T05:35:30.089Z,16.50
2018-07-15T05:37:58.521Z,16.50
2018-07-15T05:40:27.128Z,16.50
2018-07-15T05:42:55.584Z,16.60
2018-07-15T05:45:24.042Z,16.70
2018-07-15T05:47:52.464Z,16.80
2018-07-15T05:50:20.869Z,17.00
2018-07-15T05:52:49.261Z,17.10
2018-07-15T05:55:17.799Z,17.30
2018-07-15T05:57:46.256Z,17.40
2018-07-15T06:00:14.728Z,17.60
2018-07-15T06:02:43.160Z,17.60
2018-07-15T06:05:11.562Z,17.70
2018-07-15T06:07:40.038Z,17.90
2018-07-15T06:10:08.446Z,17.90
2018-07-15T06:12:36.964Z,18.00
2018-07-15T06:15:05.475Z,18.00
2018-07-15T06:17:34.233Z,18.10
2018-07-15T06:20:02.842Z,18.10
2018-07-15T06:22:31.300Z,18.10
2018-07-15T06:27:27.886Z,18.30
2018-07-15T06:29:56.314Z,18.60
2018-07-15T06:32:24.762Z,18.80
2018-07-15T06:34:53.198Z,18.90
2018-07-15T06:37:21.618Z,19.00
2018-07-15T06:39:50.146Z,19.10
2018-07-15T06:42:18.576Z,19.30
2018-07-15T06:44:47.002Z,19.30
2018-07-15T06:47:15.453Z,19.40
2018-07-15T06:49:43.922Z,19.50
2018-07-15T06:52:12.353Z,19.60
2018-07-15T06:54:40.812Z,19.60
2018-07-15T06:57:09.274Z,19.50
2018-07-15T06:59:37.684Z,19.80
2018-07-15T07:02:06.136Z,20.00
2018-07-15T07:04:34.636Z,20.30
2018-07-15T07:07:03.090Z,20.50
2018-07-15T07:09:31.512Z,20.50
2018-07-15T07:12:00.117Z,20.60
2018-07-15T07:14:28.554Z,20.80
2018-07-15T07:16:57.009Z,20.90
2018-07-15T07:19:25.445Z,20.90
2018-07-15T07:21:54.448Z,20.90
2018-07-15T07:24:23.029Z,20.90
2018-07-15T07:26:51.474Z,21.10
2018-07-15T07:29:20.745Z,21.20
2018-07-15T07:31:49.164Z,21.30
2018-07-15T07:34:17.587Z,21.50
2018-07-15T07:36:46.123Z,21.60
2018-07-15T07:39:14.533Z,21.70
2018-07-15T07:41:43.009Z,21.50
2018-07-15T07:44:11.483Z,21.20
2018-07-15T07:46:39.929Z,21.40
2018-07-15T07:49:08.462Z,21.50
2018-07-15T07:51:36.865Z,21.70
2018-07-15T07:54:05.435Z,21.80
2018-07-15T07:56:33.962Z,22.10
2018-07-15T07:59:02.509Z,22.20
2018-07-15T08:01:30.943Z,22.40
2018-07-15T08:03:59.394Z,22.50
2018-07-15T08:06:27.884Z,22.70
2018-07-15T08:08:56.374Z,22.90
2018-07-15T08:11:24.820Z,23.00
2018-07-15T08:13:53.287Z,23.20
2018-07-15T08:16:21.740Z,23.20
2018-07-15T08:18:50.181Z,23.20
2018-07-15T08:21:18.719Z,23.40
2018-07-15T08:23:47.224Z,23.50
2018-07-15T08:26:15.722Z,23.50
2018-07-15T08:28:44.265Z,23.50
2018-07-15T08:31:15.380Z,23.40
2018-07-15T08:33:43.864Z,23.60
2018-07-15T08:36:12.661Z,23.80
2018-07-15T08:38:41.347Z,23.90
2018-07-15T08:41:09.788Z,23.90
2018-07-15T08:43:38.235Z,24.10
2018-07-15T08:48:34.937Z,24.60
2018-07-15T08:51:03.785Z,24.80
2018-07-15T08:57:50.173Z,24.60
2018-07-15T09:00:18.802Z,24.80
2018-07-15T09:05:15.824Z,25.00
2018-07-15T09:07:44.782Z,25.10
2018-07-15T09:10:13.542Z,25.20
2018-07-15T09:15:10.221Z,25.40
2018-07-15T09:17:38.692Z,25.40
2018-07-15T09:20:07.161Z,25.20
2018-07-15T09:22:35.601Z,25.20
2018-07-15T09:25:04.259Z,25.00
2018-07-15T09:27:32.829Z,24.90
2018-07-15T09:30:01.302Z,25.00
2018-07-15T09:32:29.938Z,25.30
2018-07-15T09:34:58.509Z,25.40
2018-07-15T09:37:26.951Z,25.40
2018-07-15T09:39:55.397Z,25.60
2018-07-15T09:42:23.877Z,25.90
2018-07-15T09:44:52.352Z,26.00
2018-07-15T09:47:20.781Z,26.30
2018-07-15T09:49:49.296Z,26.20
2018-07-15T09:52:17.717Z,26.20
2018-07-15T09:54:50.405Z,26.40
2018-07-15T09:57:18.933Z,26.60
2018-07-15T09:59:47.545Z,26.70
2018-07-15T10:02:15.978Z,26.60
2018-07-15T10:04:44.457Z,26.60
2018-07-15T10:07:13.170Z,26.60
2018-07-15T10:09:41.623Z,26.80
2018-07-15T10:12:10.111Z,26.80
2018-07-15T10:14:38.624Z,26.60
2018-07-15T10:17:07.045Z,26.70
2018-07-15T10:19:36.125Z,26.60
2018-07-15T10:22:04.604Z,26.70
2018-07-15T10:24:33.076Z,26.80
2018-07-15T10:27:02.211Z,27.00
2018-07-15T10:29:30.653Z,27.10
2018-07-15T10:31:59.160Z,27.20
2018-07-15T10:34:27.684Z,27.30
2018-07-15T10:36:56.147Z,27.20
2018-07-15T10:39:25.234Z,27.30
2018-07-15T10:41:53.788Z,27.40
2018-07-15T10:44:22.397Z,27.40
2018-07-15T10:46:50.820Z,27.50
2018-07-15T10:49:19.326Z,27.80
2018-07-15T10:51:47.789Z,27.80
2018-07-15T10:54:16.213Z,27.90
2018-07-15T10:56:44.866Z,27.90
2018-07-15T10:59:13.432Z,27.90
2018-07-15T11:01:42.008Z,27.90
2018-07-15T11:04:10.497Z,28.10
2018-07-15T11:06:38.972Z,28.10
2018-07-15T11:09:08.133Z,28.00
2018-07-15T11:14:04.870Z,27.70
2018-07-15T11:16:33.381Z,27.80
2018-07-15T11:19:02.160Z,27.90
2018-07-15T11:22:06.993Z,27.90
2018-07-15T11:24:35.604Z,28.00
2018-07-15T11:27:04.017Z,27.90
2018-07-15T11:29:32.993Z,27.90
2018-07-15T11:32:01.464Z,28.00
2018-07-15T11:34:30.353Z,28.30
2018-07-15T11:36:58.823Z,28.40
2018-07-15T11:39:27.383Z,28.40
2018-07-15T11:41:55.830Z,28.50
2018-07-15T11:44:24.337Z,28.50
2018-07-15T11:46:52.803Z,28.40
2018-07-15T11:49:21.304Z,28.30
2018-07-15T11:51:49.777Z,27.90
2018-07-15T11:54:18.232Z,27.80
2018-07-15T11:56:46.700Z,27.90
2018-07-15T11:59:15.137Z,27.90
2018-07-15T12:01:43.841Z,27.90
2018-07-15T12:04:12.401Z,28.00
2018-07-15T12:06:40.909Z,27.90
2018-07-15T12:09:10.125Z,27.80
2018-07-15T12:11:38.555Z,27.60
2018-07-15T12:14:07.121Z,27.70
2018-07-15T12:16:35.565Z,27.70
2018-07-15T12:19:04.264Z,27.80
2018-07-15T12:21:32.774Z,27.80
2018-07-15T12:24:01.237Z,27.90
2018-07-15T12:26:29.693Z,28.00
2018-07-15T12:28:58.197Z,27.90
2018-07-15T12:31:26.809Z,27.90
2018-07-15T12:33:55.295Z,28.00
2018-07-15T12:36:23.894Z,28.10
2018-07-15T12:38:53.342Z,28.10
2018-07-15T12:41:22.381Z,28.10
2018-07-15T12:43:50.922Z,28.10
2018-07-15T12:46:19.402Z,27.90
2018-07-15T12:48:47.996Z,27.70
2018-07-15T12:51:16.612Z,27.60
2018-07-15T12:53:45.083Z,27.70
2018-07-15T12:56:14.205Z,27.90
2018-07-15T12:58:42.789Z,28.20
2018-07-15T13:01:11.323Z,28.20
2018-07-15T13:03:40.413Z,28.20
2018-07-15T13:06:08.938Z,28.20
2018-07-15T13:08:37.386Z,28.20
2018-07-15T13:11:05.840Z,28.20
2018-07-15T13:13:34.252Z,27.90
2018-07-15T13:16:02.736Z,27.90
2018-07-15T13:18:31.997Z,27.80
2018-07-15T13:23:28.745Z,27.70
2018-07-15T13:25:57.338Z,27.70
2018-07-15T13:28:25.848Z,27.80
2018-07-15T13:30:54.328Z,27.90
2018-07-15T13:33:22.855Z,27.90
2018-07-15T13:35:51.341Z,28.00
2018-07-15T13:38:19.826Z,28.20
2018-07-15T13:40:48.890Z,28.20
2018-07-15T13:43:17.424Z,28.20
2018-07-15T13:45:45.880Z,28.20
2018-07-15T13:48:15.091Z,28.30
2018-07-15T13:50:44.243Z,28.40
2018-07-15T13:53:12.785Z,28.50
2018-07-15T13:55:41.285Z,28.40
2018-07-15T13:58:09.756Z,28.30
2018-07-15T14:00:38.211Z,28.20
2018-07-15T14:03:06.702Z,28.00
2018-07-15T14:05:35.181Z,27.70
2018-07-15T14:08:03.694Z,27.70
2018-07-15T14:10:32.226Z,27.70
2018-07-15T14:13:00.674Z,27.90
2018-07-15T14:15:29.129Z,28.00
2018-07-15T14:17:57.561Z,28.10
2018-07-15T14:20:26.037Z,28.30
2018-07-15T14:22:54.597Z,28.40
2018-07-15T14:25:23.337Z,28.50
2018-07-15T14:27:51.867Z,28.90
2018-07-15T14:30:20.308Z,29.00
2018-07-15T14:32:48.792Z,29.00
2018-07-15T14:41:03.125Z,29.10
2018-07-15T14:43:31.607Z,29.10
2018-07-15T14:46:00.046Z,29.30
2018-07-15T14:48:28.506Z,29.50
2018-07-15T14:50:57.060Z,29.40
2018-07-15T14:53:25.478Z,29.20
2018-07-15T14:55:53.967Z,29.20
2018-07-15T14:58:22.413Z,29.10
2018-07-15T15:00:50.916Z,29.20
2018-07-15T15:03:19.429Z,29.40
2018-07-15T15:05:47.850Z,29.40
2018-07-15T15:08:16.320Z,29.10
2018-07-15T15:10:44.880Z,29.00
2018-07-15T15:13:13.458Z,28.90
2018-07-15T15:15:41.940Z,28.80
2018-07-15T15:20:38.576Z,28.60
2018-07-15T15:23:07.036Z,28.40
2018-07-15T15:25:35.504Z,28.30
2018-07-15T15:28:04.022Z,28.30
2018-07-15T15:30:32.448Z,28.20
2018-07-15T15:33:00.996Z,28.10
2018-07-15T15:35:29.468Z,28.00
2018-07-15T15:37:58.473Z,27.90
2018-07-15T15:40:26.973Z,27.90
2018-07-15T15:42:55.465Z,27.80
2018-07-15T15:45:23.976Z,27.80
2018-07-15T15:47:52.428Z,27.70
2018-07-15T15:50:21.057Z,27.70
2018-07-15T15:52:49.526Z,27.50
2018-07-15T15:55:18.017Z,27.50
2018-07-15T15:57:46.554Z,27.50
2018-07-15T16:00:15.026Z,27.60
2018-07-15T16:02:43.516Z,27.40
2018-07-15T16:05:12.055Z,27.20
2018-07-15T16:07:40.564Z,27.10
2018-07-15T16:10:09.238Z,27.00
2018-07-15T16:12:37.655Z,27.10
2018-07-15T16:15:07.100Z,27.10
2018-07-15T16:17:35.558Z,27.10
2018-07-15T16:20:04.103Z,27.10
2018-07-15T16:22:32.669Z,27.10
2018-07-15T16:25:01.213Z,27.10
2018-07-15T16:27:29.674Z,27.00
2018-07-15T16:29:59.040Z,26.90
2018-07-15T16:32:27.495Z,26.80
2018-07-15T16:34:55.981Z,26.80
2018-07-15T16:37:24.996Z,26.80
2018-07-15T16:39:53.459Z,26.70
2018-07-15T16:42:21.919Z,26.60
2018-07-15T16:44:50.386Z,26.60
2018-07-15T16:47:19.636Z,26.50
2018-07-15T16:49:48.164Z,26.50
2018-07-15T16:52:17.247Z,26.50
2018-07-15T16:54:46.084Z,26.50
2018-07-15T16:57:14.649Z,26.40
2018-07-15T16:59:43.123Z,26.40
2018-07-15T17:02:12.420Z,26.40
2018-07-15T17:04:40.833Z,26.40
2018-07-15T17:07:09.364Z,26.20
2018-07-15T17:09:38.655Z,26.10
2018-07-15T17:12:07.771Z,26.10
2018-07-15T17:14:36.891Z,26.10
2018-07-15T17:17:05.764Z,26.00
2018-07-15T17:19:34.397Z,25.90
2018-07-15T17:22:02.901Z,25.90
2018-07-15T17:24:31.405Z,25.90
2018-07-15T17:26:59.860Z,25.80
2018-07-15T17:29:28.333Z,25.70
2018-07-15T17:31:56.909Z,25.70
2018-07-15T17:34:25.391Z,25.70
2018-07-15T17:36:54.085Z,25.70
2018-07-15T17:39:22.570Z,25.70
2018-07-15T17:41:51.181Z,25.70
2018-07-15T17:44:19.628Z,25.60
2018-07-15T17:46:48.141Z,25.60
2018-07-15T17:49:16.693Z,25.70
2018-07-15T17:51:45.204Z,25.60
2018-07-15T17:54:13.991Z,25.40
2018-07-15T17:56:42.609Z,25.40
2018-07-15T17:59:11.658Z,25.40
2018-07-15T18:01:40.172Z,25.50
2018-07-15T18:04:08.889Z,25.50
2018-07-15T18:06:37.417Z,25.40
2018-07-15T18:09:06.680Z,25.30
2018-07-15T18:11:35.162Z,25.30
2018-07-15T18:14:04.345Z,25.30
2018-07-15T18:16:32.904Z,25.20
2018-07-15T18:19:01.512Z,25.30
2018-07-15T18:21:30.182Z,25.30
2018-07-15T18:23:58.666Z,25.30
2018-07-15T18:26:27.171Z,25.20
2018-07-15T18:28:55.728Z,25.20
2018-07-15T18:31:24.201Z,25.10
2018-07-15T18:33:52.666Z,25.10
2018-07-15T18:36:21.319Z,25.00
2018-07-15T18:38:49.892Z,25.00
2018-07-15T18:41:18.489Z,25.00
2018-07-15T18:43:46.957Z,25.00
2018-07-15T18:46:15.513Z,24.90
2018-07-15T18:48:44.056Z,24.90
2018-07-15T18:51:12.507Z,24.80
2018-07-15T18:53:41.091Z,24.80
2018-07-15T18:56:09.515Z,24.80
2018-07-15T18:58:37.981Z,24.80
2018-07-15T19:01:06.441Z,24.70
2018-07-15T19:03:34.929Z,24.60
2018-07-15T19:06:03.397Z,24.70
2018-07-15T19:08:31.987Z,24.60
2018-07-15T19:11:00.430Z,24.60
2018-07-15T19:13:29.463Z,24.60
2018-07-15T19:15:58.227Z,24.40
2018-07-15T19:18:26.737Z,24.40
2018-07-15T19:20:55.288Z,24.40
2018-07-15T19:23:23.785Z,24.40
2018-07-15T19:25:52.356Z,24.30
2018-07-15T19:28:20.810Z,24.30
2018-07-15T19:30:49.869Z,24.30
2018-07-15T19:33:18.445Z,24.30
2018-07-15T19:35:47.242Z,24.20
2018-07-15T19:38:15.775Z,24.10
2018-07-15T19:40:44.327Z,24.00
2018-07-15T19:43:12.789Z,24.00
2018-07-15T19:45:41.196Z,24.00
2018-07-15T19:48:10.210Z,23.90
2018-07-15T19:50:38.764Z,23.90
2018-07-15T19:53:07.344Z,23.90
2018-07-15T19:55:35.861Z,23.80
2018-07-15T19:58:04.450Z,23.70
2018-07-15T20:00:32.934Z,23.70
2018-07-15T20:03:01.664Z,23.60
2018-07-15T20:05:30.155Z,23.50
2018-07-15T20:07:58.639Z,23.50
2018-07-15T20:12:55.345Z,23.30
2018-07-15T20:15:24.672Z,23.30
2018-07-15T20:17:53.527Z,23.20
2018-07-15T20:20:21.981Z,23.20
2018-07-15T20:22:50.465Z,23.20
2018-07-15T20:25:18.980Z,23.10
2018-07-15T20:27:47.567Z,23.00
2018-07-15T20:32:50.127Z,22.80
2018-07-15T20:35:18.584Z,22.80
2018-07-15T20:37:47.194Z,22.70
2018-07-15T20:40:16.400Z,22.70
2018-07-15T20:42:44.968Z,22.80
2018-07-15T20:45:13.437Z,22.90
2018-07-15T20:47:41.937Z,22.90
2018-07-15T20:50:10.522Z,22.80
2018-07-15T20:52:39.068Z,22.70
2018-07-15T20:55:07.861Z,22.70
2018-07-15T20:57:36.680Z,22.70
2018-07-15T21:00:05.306Z,22.60
2018-07-15T21:02:33.818Z,22.50
2018-07-15T21:05:02.270Z,22.50
2018-07-15T21:07:30.844Z,22.40
2018-07-15T21:09:59.330Z,22.40
2018-07-15T21:12:27.822Z,22.20
2018-07-15T21:14:56.293Z,22.10
2018-07-15T21:17:24.745Z,22.10
2018-07-15T21:19:53.280Z,22.00
2018-07-15T21:22:21.713Z,22.00
2018-07-15T21:24:50.152Z,21.90
2018-07-15T21:27:18.636Z,21.90
2018-07-15T21:29:47.117Z,22.00
2018-07-15T21:32:15.628Z,22.00
2018-07-15T21:34:44.952Z,22.00
2018-07-15T21:37:13.477Z,21.90
2018-07-15T21:39:42.000Z,21.90
2018-07-15T21:42:10.481Z,22.00
2018-07-15T21:44:38.981Z,22.00
2018-07-15T21:47:07.436Z,21.90
2018-07-15T21:49:35.930Z,21.80
2018-07-15T21:52:04.493Z,21.80
2018-07-15T21:54:32.979Z,21.80
2018-07-15T21:57:01.417Z,21.80
2018-07-15T21:59:29.858Z,21.80
2018-07-15T22:01:58.711Z,21.80
2018-07-15T22:04:27.156Z,21.80
2018-07-15T22:07:06.877Z,21.70
2018-07-15T22:09:56.020Z,21.70
2018-07-15T22:12:24.535Z,21.70
2018-07-15T22:14:53.023Z,21.70
2018-07-15T22:17:21.774Z,21.60
2018-07-15T22:19:50.253Z,21.60
2018-07-15T22:22:21.595Z,21.50
2018-07-15T22:24:50.051Z,21.50
2018-07-15T22:27:18.725Z,21.50
2018-07-15T22:29:47.713Z,21.50
2018-07-15T22:32:16.144Z,21.50
2018-07-15T22:37:12.734Z,21.30
2018-07-15T22:39:41.884Z,21.30
2018-07-15T22:42:10.545Z,21.30
2018-07-15T22:44:39.634Z,21.30
2018-07-15T22:47:08.105Z,21.30
2018-07-15T22:49:36.734Z,21.30
2018-07-15T22:52:05.184Z,21.30
2018-07-15T22:54:33.644Z,21.20
2018-07-15T22:57:02.100Z,21.20
2018-07-15T22:59:30.623Z,21.20
2018-07-15T23:01:59.068Z,21.20
2018-07-15T23:05:48.644Z,21.10
2018-07-15T23:08:17.161Z,21.10
2018-07-15T23:10:46.105Z,21.10
2018-07-15T23:13:15.122Z,21.00
2018-07-15T23:15:43.863Z,21.00
2018-07-15T23:18:13.385Z,21.00
2018-07-15T23:20:42.578Z,21.00
2018-07-15T23:23:11.573Z,21.00
2018-07-15T23:25:40.045Z,21.00
2018-07-15T23:28:09.480Z,21.00
2018-07-15T23:30:38.782Z,21.00
2018-07-15T23:33:07.743Z,21.00
2018-07-15T23:35:36.249Z,21.00
2018-07-15T23:38:04.737Z,21.00
2018-07-15T23:40:33.245Z,21.00
2018-07-15T23:43:02.240Z,20.90
2018-07-15T23:45:31.700Z,20.90
2018-07-15T23:48:00.145Z,20.90
2018-07-15T23:50:28.581Z,20.90
2018-07-15T23:55:26.067Z,20.80
2018-07-15T23:57:54.992Z,20.70
